Time;durP1;ratioP1;P1;durP2;ratioP2;P2;SDS_P1;SDS_P2;PMS_P1;PMS_P2;Temp;Humidity;BMP_temperature;BMP_pressure;BME280_temperature;BME280_humidity;BME280_pressure;Samples;Min_cycle;Max_cycle;Signal;HPM_P1;HPM_P2
2022/08/19 00:01:42;;;;;;;8.33;6.17;;;;;;;21.68;71.91;99407.28;1815922;77;21076;-75
2022/08/19 00:04:11;;;;;;;13.43;5.95;;;;;;;21.64;71.93;99404.26;1818155;78;21060;-75
2022/08/19 00:06:38;;;;;;;10.10;5.72;;;;;;;21.63;71.97;99405.86;1815496;77;21003;-77
2022/08/19 00:09:08;;;;;;;9.98;6.15;;;;;;;21.60;72.05;99407.98;1820694;77;21133;-74
2022/08/19 00:11:36;;;;;;;8.20;5.83;;;;;;;21.58;72.20;99407.42;1819844;77;21064;-78
2022/08/19 00:14:05;;;;;;;9.73;6.22;;;;;;;21.53;72.33;99410.04;1787222;79;20994;-74
2022/08/19 00:16:32;;;;;;;8.53;5.08;;;;;;;21.48;72.53;99409.14;1774532;78;21003;-74
2022/08/19 00:18:58;;;;;;;13.43;5.65;;;;;;;21.50;72.67;99405.66;1826020;77;21535;-73
2022/08/19 00:21:26;;;;;;;12.28;6.22;;;;;;;21.58;72.52;99410.12;1819417;77;21103;-74
2022/08/19 00:23:54;;;;;;;11.95;5.90;;;;;;;21.56;72.46;99404.15;1818651;77;21046;-77
2022/08/19 00:26:21;;;;;;;9.90;5.58;;;;;;;21.52;72.59;99405.72;1817978;77;20993;-74
2022/08/19 00:28:47;;;;;;;7.78;6.05;;;;;;;21.49;72.66;99403.50;1818904;77;21005;-73
2022/08/19 00:31:16;;;;;;;8.95;6.30;;;;;;;21.46;72.72;99401.82;1819149;77;21092;-75
2022/08/19 00:33:42;;;;;;;9.58;6.25;;;;;;;21.39;72.83;99401.44;1826757;77;21788;-74
2022/08/19 00:36:11;;;;;;;12.37;6.17;;;;;;;21.34;72.94;99402.73;1777853;79;21010;-74
2022/08/19 00:38:40;;;;;;;12.63;6.65;;;;;;;21.37;73.03;99403.57;1819762;77;20990;-75
2022/08/19 00:41:07;;;;;;;10.35;5.47;;;;;;;21.43;72.91;99396.36;1826969;77;21029;-74
2022/08/19 00:43:34;;;;;;;8.58;6.12;;;;;;;21.39;73.02;99398.73;1818319;77;21029;-75
2022/08/19 00:46:04;;;;;;;6.95;6.08;;;;;;;21.38;73.09;99401.17;1821735;77;21085;-73
2022/08/19 00:48:29;;;;;;;10.20;6.83;;;;;;;21.34;73.13;99401.38;1771742;79;21039;-75
2022/08/19 00:50:55;;;;;;;12.28;6.72;;;;;;;21.31;73.30;99401.05;1800070;77;21006;-74
2022/08/19 00:53:25;;;;;;;9.93;5.80;;;;;;;21.25;73.41;99403.36;1785011;79;21272;-74
2022/08/19 00:55:55;;;;;;;12.18;6.05;;;;;;;21.25;73.39;99405.55;1784384;78;21568;-75
2022/08/19 00:58:24;;;;;;;12.78;6.45;;;;;;;21.28;73.43;99415.85;1748681;79;21082;-76
2022/08/19 01:00:51;;;;;;;10.85;6.55;;;;;;;21.23;73.49;99416.30;1764472;79;21014;-74
2022/08/19 01:03:19;;;;;;;8.98;6.22;;;;;;;21.19;73.60;99422.75;1799649;79;21066;-73
2022/08/19 01:05:46;;;;;;;16.50;7.03;;;;;;;21.17;73.62;99432.45;1802387;77;21077;-76
2022/08/19 01:08:15;;;;;;;11.55;6.42;;;;;;;21.14;73.69;99425.36;1758763;79;21108;-76
2022/08/19 01:10:46;;;;;;;13.28;6.10;;;;;;;21.10;73.84;99425.03;1773067;79;21145;-77
2022/08/19 01:13:15;;;;;;;12.05;6.22;;;;;;;21.14;73.86;99425.36;1775100;79;21053;-75
2022/08/19 01:15:45;;;;;;;11.38;7.58;;;;;;;21.21;73.78;99426.02;1771002;79;21046;-78
2022/08/19 01:18:15;;;;;;;9.88;6.40;;;;;;;21.16;73.95;99426.73;1769842;79;21083;-78
2022/08/19 01:20:42;;;;;;;10.98;6.97;;;;;;;21.10;74.07;99426.92;1789522;79;21005;-78
2022/08/19 01:23:09;;;;;;;10.50;6.97;;;;;;;21.05;74.60;99430.33;1754948;80;21166;-78
2022/08/19 01:25:46;;;;;;;10.20;6.50;;;;;;;21.01;74.85;99423.28;1803949;77;21488;-78
2022/08/19 01:28:20;;;;;;;9.00;6.42;;;;;;;21.00;75.08;99424.33;1772004;79;21073;-75
2022/08/19 01:30:46;;;;;;;12.73;6.87;;;;;;;21.06;75.02;99415.78;1797967;79;21012;-77
2022/08/19 01:33:13;;;;;;;17.87;6.55;;;;;;;21.04;74.87;99418.45;1788135;79;21066;-78
2022/08/19 01:35:40;;;;;;;11.43;6.72;;;;;;;20.98;75.08;99422.41;1766201;80;21269;-77
2022/08/19 01:38:10;;;;;;;10.90;7.28;;;;;;;20.92;75.14;99418.49;1805048;77;21544;-77
2022/08/19 01:40:41;;;;;;;10.50;6.87;;;;;;;20.88;75.14;99414.14;1800961;79;21057;-76
2022/08/19 01:43:08;;;;;;;9.18;6.00;;;;;;;20.80;75.35;99405.91;1747911;80;21046;-77
2022/08/19 01:45:35;;;;;;;12.37;6.60;;;;;;;20.82;75.30;99404.29;1794300;79;21023;-76
2022/08/19 01:48:03;;;;;;;12.10;6.75;;;;;;;20.86;75.35;99401.42;1775024;79;21448;-76
2022/08/19 01:50:31;;;;;;;14.38;7.40;;;;;;;20.80;75.67;99399.67;1759219;79;21015;-77
2022/08/19 01:53:00;;;;;;;12.15;7.28;;;;;;;20.72;75.89;99397.38;1781056;79;21017;-75
2022/08/19 01:55:26;;;;;;;9.83;6.87;;;;;;;20.64;75.96;99401.28;1759741;79;21493;-76
2022/08/19 01:57:55;;;;;;;9.00;6.60;;;;;;;20.62;76.27;99403.41;1807657;79;21049;-76
2022/08/19 02:00:23;;;;;;;15.23;7.35;;;;;;;20.69;76.13;99403.27;1805929;77;21108;-77
2022/08/19 02:02:50;;;;;;;8.78;6.65;;;;;;;20.66;76.15;99391.60;1787167;79;21064;-74
2022/08/19 02:05:18;;;;;;;9.65;6.85;;;;;;;20.61;76.42;99390.99;1799406;79;20986;-76
2022/08/19 02:07:45;;;;;;;8.68;7.42;;;;;;;20.57;76.39;99394.67;1796230;79;21130;-77
2022/08/19 02:10:16;;;;;;;14.15;6.65;;;;;;;20.52;76.52;99395.91;1768027;80;21070;-76
2022/08/19 02:12:44;;;;;;;13.70;6.80;;;;;;;20.53;76.66;99397.56;1798977;79;21371;-75
2022/08/19 02:15:11;;;;;;;8.78;7.00;;;;;;;20.57;76.76;99396.02;1769516;79;20997;-73
2022/08/19 02:17:40;;;;;;;10.35;7.15;;;;;;;20.51;76.75;99390.22;1798890;79;21074;-73
2022/08/19 02:20:08;;;;;;;10.78;7.05;;;;;;;20.45;76.85;99397.94;1775012;79;21088;-75
2022/08/19 02:22:35;;;;;;;9.20;6.92;;;;;;;20.37;77.25;99404.53;1783565;79;21220;-76
2022/08/19 02:25:01;;;;;;;8.95;6.40;;;;;;;20.37;77.33;99407.23;1758658;80;21146;-78
2022/08/19 02:27:28;;;;;;;8.38;6.67;;;;;;;20.43;77.20;99411.66;1792302;79;21339;-76
2022/08/19 02:29:54;;;;;;;13.65;7.12;;;;;;;20.39;77.33;99410.50;1762864;79;21043;-77
2022/08/19 02:32:21;;;;;;;12.82;7.37;;;;;;;20.35;77.59;99413.39;1776846;79;21548;-76
2022/08/19 02:34:48;;;;;;;14.78;6.90;;;;;;;20.31;77.58;99411.43;1788695;77;21030;-78
2022/08/19 02:39:59;;;;;;;13.95;7.25;;;;;;;20.30;77.74;99411.12;1842902;76;20999;-76
2022/08/19 02:42:26;;;;;;;19.85;7.28;;;;;;;20.34;77.61;99416.33;1841131;76;21073;-76
2022/08/19 02:44:53;;;;;;;10.72;7.47;;;;;;;20.29;77.79;99407.62;1843939;76;21030;-76
2022/08/19 02:47:20;;;;;;;12.53;7.95;;;;;;;20.23;77.95;99410.74;1788859;77;21552;-81
2022/08/19 02:49:49;;;;;;;12.30;6.78;;;;;;;20.17;78.06;99405.50;1845932;77;21178;-82
2022/08/19 02:52:15;;;;;;;14.13;7.40;;;;;;;20.20;78.07;99411.23;1853597;76;21025;-80
2022/08/19 02:54:42;;;;;;;9.60;6.28;;;;;;;20.28;78.01;99407.85;1849389;76;20974;-80
2022/08/19 02:57:08;;;;;;;11.28;7.00;;;;;;;20.25;77.99;99413.20;1852294;77;21002;-81
2022/08/19 02:59:36;;;;;;;16.35;6.80;;;;;;;20.22;77.96;99417.21;1842044;75;20982;-79
2022/08/19 03:02:02;;;;;;;12.78;7.28;;;;;;;20.18;77.89;99419.26;1780087;80;21460;-76
2022/08/19 03:04:29;;;;;;;9.55;6.70;;;;;;;20.15;78.08;99420.56;1811128;78;21002;-76
2022/08/19 03:06:56;;;;;;;13.78;6.80;;;;;;;20.17;78.16;99421.14;1813272;78;21058;-77
2022/08/19 03:09:23;;;;;;;11.97;6.70;;;;;;;20.27;78.02;99429.16;1776120;79;21126;-76
2022/08/19 03:11:50;;;;;;;9.68;7.00;;;;;;;20.25;78.14;99427.23;1785925;79;21061;-75
2022/08/19 03:14:17;;;;;;;11.95;7.28;;;;;;;20.21;78.24;99421.48;1784366;79;21142;-77
2022/08/19 03:16:51;;;;;;;9.18;7.08;;;;;;;20.17;78.28;99419.80;1779282;79;21021;-76
2022/08/19 03:19:19;;;;;;;8.43;6.47;;;;;;;20.13;78.31;99421.34;1811159;78;21058;-74
2022/08/19 03:21:45;;;;;;;11.50;6.37;;;;;;;20.14;78.39;99425.66;1775351;80;21544;-78
2022/08/19 03:24:13;;;;;;;11.33;6.08;;;;;;;20.19;78.33;99431.70;1787765;78;21064;-73
2022/08/19 03:26:41;;;;;;;7.35;6.62;;;;;;;20.12;78.49;99430.47;1794594;79;21776;-76
2022/08/19 03:29:10;;;;;;;9.00;6.97;;;;;;;20.12;78.50;99436.40;1793364;78;21149;-76
2022/08/19 03:31:37;;;;;;;12.93;7.78;;;;;;;20.12;78.36;99436.40;1804887;77;21077;-75
2022/08/19 03:34:04;;;;;;;12.40;6.50;;;;;;;20.11;78.37;99431.54;1766865;78;21267;-77
2022/08/19 03:36:31;;;;;;;14.98;7.05;;;;;;;20.15;78.15;99434.05;1780434;79;21048;-76
2022/08/19 03:38:59;;;;;;;11.78;6.62;;;;;;;20.24;77.88;99429.09;1765397;80;21099;-77
2022/08/19 03:41:30;;;;;;;11.40;6.62;;;;;;;20.21;77.97;99435.78;1814594;78;21270;-74
2022/08/19 03:43:57;;;;;;;12.68;6.80;;;;;;;20.17;78.07;99433.28;1765575;79;21029;-74
2022/08/19 03:46:27;;;;;;;11.75;6.80;;;;;;;20.15;78.08;99435.94;1801442;78;21046;-74
2022/08/19 03:48:55;;;;;;;9.88;5.65;;;;;;;20.14;78.15;99445.88;1780693;79;21486;-73
2022/08/19 03:51:31;;;;;;;9.18;6.65;;;;;;;20.19;78.08;99438.44;1796573;78;21906;-76
2022/08/19 03:53:59;;;;;;;10.25;7.53;;;;;;;20.26;77.97;99450.43;1785424;80;21473;-75
2022/08/19 03:56:27;;;;;;;13.48;6.80;;;;;;;20.22;77.97;99455.48;1803067;78;21010;-74
2022/08/19 03:58:59;;;;;;;9.75;6.87;;;;;;;20.19;77.94;99459.48;1778639;80;21337;-77
2022/08/19 04:01:27;;;;;;;10.82;6.20;;;;;;;20.18;78.00;99451.08;1813110;78;20974;-76
2022/08/19 04:03:55;;;;;;;12.82;6.80;;;;;;;20.27;77.89;99448.04;1774198;78;21406;-76
2022/08/19 04:06:30;;;;;;;8.98;6.60;;;;;;;20.39;77.50;99447.46;1775785;79;21062;-74
2022/08/19 04:08:58;;;;;;;9.60;6.50;;;;;;;20.43;77.28;99445.92;1797704;78;21478;-77
2022/08/19 04:11:27;;;;;;;8.98;6.15;;;;;;;20.48;77.17;99443.88;1758571;78;21139;-75
2022/08/19 04:13:55;;;;;;;12.58;6.62;;;;;;;20.52;76.88;99440.44;1786159;79;21048;-76
2022/08/19 04:16:24;;;;;;;11.40;6.30;;;;;;;20.59;76.59;99442.50;1781600;80;21194;-75
2022/08/19 04:18:51;;;;;;;10.15;6.17;;;;;;;20.70;76.17;99444.03;1773728;80;21081;-72
2022/08/19 04:21:20;;;;;;;12.93;5.87;;;;;;;20.80;75.84;99444.20;1767835;79;20981;-73
2022/08/19 04:23:47;;;;;;;14.73;6.72;;;;;;;20.82;75.60;99448.83;1817377;78;21021;-75
2022/08/19 04:26:23;;;;;;;8.15;6.53;;;;;;;20.86;75.71;99447.82;1785222;79;21113;-76
2022/08/19 04:28:51;;;;;;;7.72;6.00;;;;;;;20.90;75.33;99449.81;1802995;79;21143;-76
2022/08/19 04:31:22;;;;;;;12.85;6.70;;;;;;;20.99;75.18;99452.37;1775414;79;21505;-75
2022/08/19 04:33:49;;;;;;;9.90;6.20;;;;;;;21.16;75.17;99452.94;1781983;79;21036;-74
2022/08/19 04:36:19;;;;;;;12.07;6.22;;;;;;;21.30;74.44;99456.95;1763422;79;21121;-76
2022/08/19 04:38:46;;;;;;;14.70;6.65;;;;;;;21.34;74.20;99459.98;1764719;79;21120;-74
2022/08/19 04:43:58;;;;;;;10.93;6.42;;;;;;;21.33;73.73;99471.33;1770477;80;21023;-76
2022/08/19 04:46:24;;;;;;;10.48;6.65;;;;;;;21.32;73.55;99475.08;1779525;80;21065;-77
2022/08/19 04:48:50;;;;;;;11.22;5.28;;;;;;;21.33;73.65;99471.86;1763128;79;21040;-78
2022/08/19 04:51:17;;;;;;;14.23;5.80;;;;;;;21.45;73.38;99483.43;1778299;79;21561;-76
2022/08/19 04:53:43;;;;;;;10.30;6.05;;;;;;;21.55;72.76;99484.13;1754395;80;21466;-76
2022/08/19 04:56:13;;;;;;;14.38;6.80;;;;;;;21.51;72.57;99483.79;1774797;80;20991;-74
2022/08/19 04:58:42;;;;;;;9.63;6.47;;;;;;;21.47;73.01;99477.24;1776221;79;21045;-78
2022/08/19 05:01:16;;;;;;;9.55;6.35;;;;;;;21.45;73.07;99487.48;1847045;76;21054;-78
2022/08/19 05:03:43;;;;;;;12.18;6.62;;;;;;;21.38;73.17;99483.58;1847338;76;21513;-75
2022/08/19 05:06:15;;;;;;;15.95;6.35;;;;;;;21.34;73.21;99482.94;1754560;79;21024;-77
2022/08/19 05:08:43;;;;;;;10.30;5.55;;;;;;;21.38;73.45;99490.33;1837577;77;21049;-75
2022/08/19 05:11:19;;;;;;;9.60;6.45;;;;;;;21.51;73.56;99479.73;1819794;77;20954;-75
2022/08/19 05:13:48;;;;;;;20.25;6.35;;;;;;;21.56;73.29;99483.08;1844267;76;21013;-76
2022/08/19 05:16:17;;;;;;;12.10;6.70;;;;;;;21.59;72.92;99484.75;1834806;76;21077;-75
2022/08/19 05:24:15;;;;;;;10.48;6.37;;;;;;;21.66;72.41;99487.81;1776596;79;21626;-75
2022/08/19 05:26:46;;;;;;;10.53;6.03;;;;;;;21.67;72.62;99489.44;1799059;79;21077;-78
2022/08/19 05:29:14;;;;;;;11.93;6.47;;;;;;;21.76;72.27;99490.13;1779325;79;21041;-77
2022/08/19 05:31:41;;;;;;;10.90;6.20;;;;;;;21.86;72.07;99494.05;1828553;76;21558;-77
2022/08/19 05:34:07;;;;;;;12.80;6.00;;;;;;;21.88;72.38;99489.20;1833952;76;21006;-77
2022/08/19 05:36:39;;;;;;;9.83;6.45;;;;;;;21.91;72.10;99492.78;1848345;76;21048;-77
2022/08/19 05:39:10;;;;;;;8.65;5.58;;;;;;;21.93;71.62;99496.86;1829613;76;21045;-78
2022/08/19 05:41:43;;;;;;;9.30;6.92;;;;;;;21.97;71.43;99496.64;1840404;76;21132;-76
2022/08/19 05:44:10;;;;;;;10.55;6.35;;;;;;;22.01;71.68;99499.67;1771234;80;21079;-76
2022/08/19 05:46:37;;;;;;;14.50;6.10;;;;;;;22.03;71.54;99498.08;1796677;79;21045;-77
2022/08/19 05:49:06;;;;;;;8.40;5.80;;;;;;;22.07;71.51;99501.38;1795543;78;21022;-76
2022/08/19 05:51:34;;;;;;;10.68;6.20;;;;;;;22.17;71.62;99497.48;1802183;77;21006;-79
2022/08/19 05:54:02;;;;;;;12.20;5.90;;;;;;;22.29;71.36;99502.80;1769029;80;21054;-76
2022/08/19 05:56:30;;;;;;;9.58;5.78;;;;;;;22.32;70.17;99502.27;1770272;78;21148;-78
2022/08/19 05:58:58;;;;;;;11.10;5.72;;;;;;;22.30;70.01;99498.20;1833574;77;21093;-78
2022/08/19 06:01:27;;;;;;;11.70;6.70;;;;;;;22.30;69.93;99494.95;1837517;76;21022;-81
2022/08/19 06:03:53;;;;;;;10.85;5.72;;;;;;;22.36;69.82;99493.13;1836780;77;21022;-83
2022/08/19 06:06:20;;;;;;;11.55;6.20;;;;;;;22.42;69.58;99500.77;1823913;77;21236;-82
2022/08/19 06:08:49;;;;;;;11.60;5.70;;;;;;;22.44;69.41;99494.03;1764706;79;21217;-81
2022/08/19 06:11:23;;;;;;;8.15;6.25;;;;;;;22.47;69.15;99488.13;1769563;79;21108;-81
2022/08/19 06:13:52;;;;;;;11.03;6.05;;;;;;;22.48;69.19;99484.33;1775868;80;20986;-82
2022/08/19 06:16:22;;;;;;;12.13;6.22;;;;;;;22.51;69.24;99478.42;1771517;78;21011;-81
2022/08/19 06:18:52;;;;;;;17.40;6.47;;;;;;;22.54;69.37;99481.15;1806701;79;20990;-83
2022/08/19 06:21:22;;;;;;;10.98;5.90;;;;;;;22.55;69.00;99478.20;1771246;80;21217;-83
2022/08/19 06:23:50;;;;;;;11.35;5.80;;;;;;;22.56;69.19;99479.00;1846534;77;21057;-83
2022/08/19 06:26:23;;;;;;;17.77;5.87;;;;;;;22.62;68.90;99481.23;1824233;76;21093;-78
2022/08/19 06:28:52;;;;;;;;;;;;;;;22.65;68.78;99479.39;1845217;77;21465;-75
2022/08/19 06:31:23;;;;;;;10.75;6.10;;;;;;;22.67;68.93;99479.95;1837064;76;20198;-73
2022/08/19 06:33:50;;;;;;;16.07;6.28;;;;;;;22.69;68.98;99484.03;1841907;76;21874;-76
2022/08/19 06:36:21;;;;;;;12.00;5.95;;;;;;;22.76;68.88;99478.44;1832775;76;20999;-76
2022/08/19 06:38:48;;;;;;;11.93;6.25;;;;;;;22.82;68.62;99478.76;1830226;76;21029;-78
2022/08/19 06:41:14;;;;;;;8.68;6.05;;;;;;;22.86;68.43;99484.48;1759771;79;21025;-76
2022/08/19 06:43:42;;;;;;;10.70;5.80;;;;;;;22.92;68.34;99481.56;1767527;79;21089;-78
2022/08/19 06:46:13;;;;;;;17.23;5.67;;;;;;;22.98;68.31;99478.37;1767025;78;21770;-75
2022/08/19 06:48:41;;;;;;;13.50;7.08;;;;;;;23.05;68.39;99479.56;1773533;78;28154;-77
2022/08/19 06:51:08;;;;;;;15.83;6.65;;;;;;;23.12;68.05;99490.47;1777642;79;21045;-76
2022/08/19 06:53:35;;;;;;;10.20;5.95;;;;;;;23.16;67.97;99491.59;1831458;76;21017;-77
2022/08/19 06:56:02;;;;;;;15.85;6.75;;;;;;;23.19;67.73;99491.59;1828114;76;21556;-77
2022/08/19 06:58:32;;;;;;;13.55;6.58;;;;;;;23.20;68.02;99494.61;1839525;76;21248;-73
2022/08/19 07:01:02;;;;;;;10.68;6.25;;;;;;;23.24;67.79;99491.66;1768569;79;21045;-77
2022/08/19 07:03:32;;;;;;;8.73;6.17;;;;;;;23.31;67.62;99485.50;1838692;76;21001;-76
2022/08/19 07:06:09;;;;;;;11.22;6.03;;;;;;;23.39;67.64;99496.91;1788206;78;21071;-79
2022/08/19 07:08:39;;;;;;;14.20;6.20;;;;;;;23.43;67.52;99502.09;1758041;80;21037;-80
2022/08/19 07:11:10;;;;;;;10.58;5.72;;;;;;;23.48;67.59;99508.38;1787755;79;21176;-78
2022/08/19 07:13:37;;;;;;;11.00;6.03;;;;;;;23.51;67.43;99501.09;1732588;81;21069;-78
2022/08/19 07:16:06;;;;;;;11.43;6.40;;;;;;;23.57;67.41;99503.86;1791090;79;21037;-78
2022/08/19 07:18:33;;;;;;;10.80;6.28;;;;;;;23.60;67.32;99494.64;1799219;79;21026;-85
2022/08/19 07:21:05;;;;;;;7.67;6.10;;;;;;;23.67;67.16;99494.43;1795054;79;20982;-76
2022/08/19 07:23:32;;;;;;;12.53;6.30;;;;;;;23.68;67.11;99490.11;1797565;79;21092;-77
2022/08/19 07:26:00;;;;;;;11.65;6.70;;;;;;;23.78;66.82;99489.87;1800512;79;21022;-76
2022/08/19 07:28:27;;;;;;;9.05;6.25;;;;;;;23.81;66.76;99486.69;1799918;79;21049;-77
2022/08/19 07:30:53;;;;;;;8.98;6.00;;;;;;;23.85;67.00;99485.08;1798667;79;21061;-76
2022/08/19 07:33:20;;;;;;;11.05;6.60;;;;;;;23.93;67.08;99477.80;1795345;79;21101;-75
2022/08/19 07:35:46;;;;;;;11.15;6.53;;;;;;;24.03;66.67;99486.02;1791927;79;21954;-76
2022/08/19 07:38:14;;;;;;;10.32;6.42;;;;;;;24.11;66.25;99484.14;1788200;79;21482;-75
2022/08/19 07:40:41;;;;;;;10.32;6.12;;;;;;;24.24;65.98;99491.00;1790760;79;21017;-76
2022/08/19 07:43:07;;;;;;;11.60;6.50;;;;;;;24.34;65.86;99488.88;1761601;79;21592;-76
2022/08/19 07:45:36;;;;;;;10.00;6.03;;;;;;;24.42;65.27;99480.77;1782783;79;21086;-77
2022/08/19 07:48:03;;;;;;;12.43;6.17;;;;;;;24.45;64.90;99490.52;1796004;78;21107;-76
2022/08/19 07:50:30;;;;;;;16.65;7.03;;;;;;;24.47;64.84;99482.12;1800547;79;21026;-75
2022/08/19 07:52:56;;;;;;;7.62;5.85;;;;;;;24.50;64.52;99481.05;1784328;79;21039;-82
2022/08/19 07:55:25;;;;;;;11.33;6.55;;;;;;;24.51;64.29;99489.52;1783308;79;21610;-78
2022/08/19 07:57:53;;;;;;;12.82;6.45;;;;;;;24.54;64.24;99492.23;1783431;79;21162;-80
2022/08/19 08:00:19;;;;;;;12.20;6.45;;;;;;;24.58;63.98;99481.66;1785100;79;21178;-78
2022/08/19 08:02:46;;;;;;;15.08;6.37;;;;;;;24.61;64.15;99491.45;1784488;79;21996;-81
2022/08/19 08:10:42;;;;;;;16.48;6.50;;;;;;;24.92;63.51;99490.16;1856878;75;20907;-87
2022/08/19 08:13:08;;;;;;;12.37;6.22;;;;;;;24.99;63.07;99493.97;1839259;76;21097;-87
2022/08/19 08:15:38;;;;;;;10.58;6.37;;;;;;;25.05;62.93;99491.00;1848304;75;20955;-90
2022/08/19 08:18:05;;;;;;;16.37;6.65;;;;;;;25.13;62.75;99500.52;1837310;75;21517;-77
2022/08/19 08:20:31;;;;;;;16.35;6.80;;;;;;;25.20;62.55;99497.53;1831763;77;21052;-76
2022/08/19 08:25:43;;;;;;;14.00;6.53;;;;;;;25.41;61.70;99509.27;1846985;77;21099;-77
2022/08/19 08:28:10;;;;;;;11.05;5.95;;;;;;;25.50;61.45;99503.55;1843945;77;21013;-74
2022/08/19 08:30:37;;;;;;;13.58;6.25;;;;;;;25.60;61.27;99506.26;1856562;77;20993;-77
2022/08/19 08:33:05;;;;;;;14.93;6.25;;;;;;;25.72;61.11;99509.25;1853213;77;21068;-75
2022/08/19 08:35:31;;;;;;;11.03;6.20;;;;;;;25.88;60.73;99505.39;1852353;77;21033;-76
2022/08/19 08:37:57;;;;;;;13.98;6.37;;;;;;;26.05;60.20;99512.73;1855060;77;21027;-75
2022/08/19 08:40:55;;;;;;;15.35;5.97;;;;;;;26.16;60.12;99514.90;1856650;77;21025;-76
2022/08/19 08:43:30;;;;;;;13.72;6.85;;;;;;;26.32;60.09;99514.84;1853520;77;21076;-76
2022/08/19 08:46:11;;;;;;;11.75;6.22;;;;;;;26.53;59.82;99513.67;1846897;75;21009;-76
2022/08/19 08:48:46;;;;;;;14.40;5.78;;;;;;;26.71;59.41;99505.42;1845386;77;21419;-74
2022/08/19 08:51:18;;;;;;;16.23;6.90;;;;;;;26.90;58.93;99515.69;1839035;76;21548;-76
2022/08/19 08:53:45;;;;;;;12.05;6.25;;;;;;;27.05;58.35;99503.33;1840685;77;21015;-75
2022/08/19 08:56:12;;;;;;;14.18;6.70;;;;;;;27.17;58.25;99504.34;1827977;77;21060;-76
2022/08/19 08:58:51;;;;;;;13.43;6.55;;;;;;;27.34;58.26;99502.05;1812234;77;21010;-76
2022/08/19 09:01:20;;;;;;;16.62;6.60;;;;;;;27.50;57.71;99508.19;1835129;77;21611;-74
2022/08/19 09:03:47;;;;;;;14.25;6.35;;;;;;;27.64;57.35;99504.23;1847902;77;21146;-76
2022/08/19 09:06:40;;;;;;;8.75;6.25;;;;;;;27.80;57.39;99494.81;1807378;77;20991;-76
2022/08/19 09:09:16;;;;;;;;;;;;;;;27.93;57.17;99497.45;1830933;77;21638;-76
2022/08/19 09:12:18;;;;;;;14.85;6.10;;;;;;;28.14;57.36;99493.11;1810689;77;20916;-76
2022/08/19 09:14:58;;;;;;;13.48;6.28;;;;;;;28.41;56.69;99494.72;1842347;77;21085;-75
2022/08/19 09:17:33;;;;;;;13.30;6.47;;;;;;;28.80;55.96;99493.67;1835710;77;21192;-74
2022/08/19 09:20:20;;;;;;;10.65;6.65;;;;;;;29.23;55.11;99500.98;1837839;77;21021;-76
2022/08/19 09:22:48;;;;;;;12.58;6.70;;;;;;;29.64;54.23;99503.59;1847483;77;21072;-76
2022/08/19 09:25:21;;;;;;;10.43;6.58;;;;;;;29.93;54.06;99510.21;1839118;77;21036;-77
2022/08/19 09:27:48;;;;;;;;;;;;;;;30.28;53.38;99519.66;1849407;77;20995;-80
2022/08/19 09:30:22;;;;;;;11.93;6.40;;;;;;;30.52;52.14;99520.02;1838940;77;21171;-81
2022/08/19 09:32:48;;;;;;;8.60;6.25;;;;;;;30.73;51.79;99517.66;1833713;77;21033;-80
2022/08/19 09:35:16;;;;;;;11.30;6.15;;;;;;;31.08;50.77;99510.59;1839772;77;21001;-78
2022/08/19 09:37:43;;;;;;;13.50;7.08;;;;;;;31.38;50.74;99514.28;1767707;79;21018;-80
2022/08/19 09:40:11;;;;;;;10.05;6.53;;;;;;;31.75;49.91;99517.19;1797767;79;20986;-78
2022/08/19 09:42:38;;;;;;;9.68;6.20;;;;;;;32.05;49.05;99515.59;1844885;77;21415;-79
2022/08/19 09:45:06;;;;;;;11.15;6.92;;;;;;;32.45;49.24;99519.69;1835175;77;21006;-80
2022/08/19 09:47:35;;;;;;;9.73;5.90;;;;;;;32.80;48.19;99523.08;1833592;77;21100;-82
2022/08/19 09:50:01;;;;;;;9.35;6.17;;;;;;;33.12;47.60;99516.33;1839478;77;21002;-79
2022/08/19 09:52:28;;;;;;;10.63;6.55;;;;;;;33.37;47.01;99516.64;1843847;77;20990;-78
2022/08/19 09:54:55;;;;;;;10.23;6.20;;;;;;;33.65;46.93;99514.32;1847209;77;21567;-82
2022/08/19 09:57:21;;;;;;;12.15;6.10;;;;;;;34.00;46.38;99511.48;1847471;77;21056;-81
2022/08/19 09:59:48;;;;;;;9.83;6.85;;;;;;;34.47;46.01;99521.87;1840807;77;20990;-79
2022/08/19 10:02:14;;;;;;;11.73;6.40;;;;;;;34.81;45.21;99516.51;1831134;77;21073;-79
2022/08/19 10:07:25;;;;;;;12.95;5.47;;;;;;;34.56;44.68;99513.55;1806166;79;21239;-80
2022/08/19 10:09:54;;;;;;;10.32;6.20;;;;;;;34.10;45.08;99530.39;1752771;80;21089;-80
2022/08/19 10:12:20;;;;;;;9.15;6.00;;;;;;;33.55;45.89;99537.48;1808605;79;21614;-80
2022/08/19 10:14:48;;;;;;;9.58;5.78;;;;;;;33.15;46.62;99534.95;1808373;79;21002;-80
2022/08/19 10:17:14;;;;;;;9.85;6.42;;;;;;;32.84;47.34;99536.45;1752528;80;21588;-80
2022/08/19 10:19:41;;;;;;;9.85;5.80;;;;;;;32.51;47.80;99535.48;1771067;79;21819;-80
2022/08/19 10:22:07;;;;;;;12.35;6.28;;;;;;;32.18;48.82;99530.36;1802301;79;21529;-81
2022/08/19 10:24:34;;;;;;;10.32;6.22;;;;;;;31.93;48.83;99533.18;1802760;79;21522;-81
2022/08/19 10:27:03;;;;;;;11.48;6.28;;;;;;;31.58;49.51;99534.36;1803412;79;21009;-77
2022/08/19 10:29:31;;;;;;;8.70;6.00;;;;;;;31.34;50.04;99543.70;1769562;79;21006;-78
2022/08/19 10:32:01;;;;;;;10.80;6.10;;;;;;;31.19;50.80;99541.89;1778588;79;21251;-78
2022/08/19 10:34:27;;;;;;;8.55;6.15;;;;;;;31.07;50.78;99548.73;1782157;79;21643;-77
2022/08/19 10:36:54;;;;;;;9.45;6.78;;;;;;;30.91;50.76;99548.27;1807358;79;21022;-78
2022/08/19 10:39:21;;;;;;;10.75;6.15;;;;;;;30.77;50.97;99544.16;1805526;79;21026;-78
2022/08/19 10:41:47;;;;;;;12.95;6.85;;;;;;;30.87;51.18;99552.73;1767340;79;21120;-77
2022/08/19 10:44:16;;;;;;;14.10;6.42;;;;;;;31.12;51.43;99548.63;1811753;77;21090;-79
2022/08/19 10:46:46;;;;;;;9.60;5.97;;;;;;;31.66;50.98;99554.76;1834430;77;20918;-80
2022/08/19 10:49:11;;;;;;;11.25;5.12;;;;;;;32.24;49.76;99541.45;1831696;77;20954;-77
2022/08/19 10:56:50;;;;;;;9.60;6.03;;;;;;;33.01;47.65;99550.22;1817611;77;21029;-78
2022/08/19 10:56:55;;;;;;;9.05;6.15;;;;;;;33.03;47.34;99556.21;1804600;77;21241;-77
2022/08/19 10:59:28;;;;;;;9.08;5.37;;;;;;;33.17;47.32;99555.27;1826895;77;20981;-78
2022/08/19 11:02:00;;;;;;;8.83;5.15;;;;;;;33.31;46.76;99554.53;1848191;77;21473;-79
2022/08/19 11:04:26;;;;;;;9.83;5.42;;;;;;;33.47;46.38;99548.75;1853569;76;21061;-79
2022/08/19 11:07:33;;;;;;;9.13;5.20;;;;;;;33.55;45.79;99554.58;1857710;76;22480;-78
2022/08/19 11:09:59;;;;;;;10.43;5.87;;;;;;;33.29;46.12;99562.30;1809021;78;21577;-77
2022/08/19 11:12:27;;;;;;;13.70;5.10;;;;;;;33.08;46.53;99556.61;1825364;78;21445;-79
2022/08/19 11:14:54;;;;;;;8.85;4.97;;;;;;;32.85;47.26;99558.69;1816124;78;22052;-75
2022/08/19 11:17:23;;;;;;;11.18;5.47;;;;;;;32.68;46.73;99558.91;1829318;77;21021;-73
2022/08/19 11:19:49;;;;;;;10.45;5.20;;;;;;;32.47;47.09;99559.20;1826385;78;21006;-75
2022/08/19 11:22:16;;;;;;;12.07;5.40;;;;;;;32.20;47.48;99561.08;1826132;78;21095;-76
2022/08/19 11:24:43;;;;;;;8.10;5.45;;;;;;;31.98;48.26;99561.09;1826100;78;21642;-73
2022/08/19 11:27:10;;;;;;;8.35;5.53;;;;;;;31.83;48.19;99552.12;1818248;78;20989;-75
2022/08/19 11:29:40;;;;;;;7.60;4.90;;;;;;;31.67;47.92;99563.27;1826148;78;21026;-75
2022/08/19 11:32:09;;;;;;;7.97;5.47;;;;;;;31.75;48.11;99554.26;1804576;78;21512;-72
2022/08/19 11:34:36;;;;;;;7.10;5.12;;;;;;;32.11;47.97;99556.10;1818115;78;21083;-75
2022/08/19 11:37:05;;;;;;;7.42;5.03;;;;;;;32.68;47.06;99556.70;1826121;78;21553;-78
2022/08/19 11:39:33;;;;;;;9.83;5.20;;;;;;;33.11;46.96;99556.00;1801453;77;21037;-74
2022/08/19 11:41:59;;;;;;;11.53;5.67;;;;;;;33.49;46.03;99560.27;1845087;77;21030;-75
2022/08/19 11:44:27;;;;;;;12.40;5.50;;;;;;;33.73;45.07;99552.63;1826241;78;21036;-77
2022/08/19 11:46:57;;;;;;;10.55;5.90;;;;;;;33.71;45.63;99546.63;1825387;78;21061;-74
2022/08/19 11:49:24;;;;;;;9.63;5.50;;;;;;;33.66;45.27;99547.62;1824234;77;21243;-73
2022/08/19 11:51:51;;;;;;;10.65;5.45;;;;;;;33.45;45.27;99559.86;1803303;78;21040;-74
2022/08/19 11:54:17;;;;;;;8.08;5.30;;;;;;;33.09;45.66;99558.23;1826442;78;20997;-74
2022/08/19 11:56:45;;;;;;;11.97;5.10;;;;;;;32.73;45.91;99562.64;1826713;78;20989;-74
2022/08/19 11:59:12;;;;;;;7.00;5.58;;;;;;;32.35;46.72;99568.06;1821611;77;21021;-74
2022/08/19 12:01:42;;;;;;;9.65;5.78;;;;;;;31.96;47.54;99568.84;1816044;78;21036;-75